Time;durP1;ratioP1;P1;durP2;ratioP2;P2;SDS_P1;SDS_P2;PMS_P1;PMS_P2;Temp;Humidity;BMP_temperature;BMP_pressure;BME280_temperature;BME280_humidity;BME280_pressure;Samples;Min_cycle;Max_cycle;Signal;HPM_P1;HPM_P2
2021/01/27 00:00:41;;;;;;;;;;;;;;;4.99;65.16;101103.72;5026280;28;7312;-73
2021/01/27 00:03:07;;;;;;;;;;;;;;;4.98;65.06;101096.81;5008293;28;7106;-76
2021/01/27 00:05:34;;;;;;;;;;;;;;;5.00;64.73;101105.50;5003312;28;7093;-73
2021/01/27 00:07:59;;;;;;;;;;;;;;;4.96;65.08;101101.00;5022733;28;6825;-74
2021/01/27 00:10:25;;;;;;;;;;;;;;;4.94;65.05;101102.63;5009517;28;7225;-74
2021/01/27 00:12:51;;;;;;;;;;;;;;;4.93;65.07;101100.84;5030120;28;6784;-74
2021/01/27 00:15:27;;;;;;;;;;;;;;;4.93;65.20;101100.84;5007513;28;7114;-73
2021/01/27 00:17:53;;;;;;;;;;;;;;;4.89;65.43;101101.50;5008277;28;6819;-73
2021/01/27 00:20:20;;;;;;;;;;;;;;;4.86;65.34;101091.06;5011125;28;6805;-73
2021/01/27 00:22:46;;;;;;;;;;;;;;;4.87;65.25;101092.84;5010547;28;6804;-75
2021/01/27 00:25:12;;;;;;;;;;;;;;;4.87;65.14;101097.97;5010378;28;7356;-76
2021/01/27 00:27:37;;;;;;;;;;;;;;;4.87;65.20;101092.84;5008264;28;6813;-73
2021/01/27 00:30:14;;;;;;;;;;;;;;;4.87;65.20;101092.84;5011195;28;6802;-73
2021/01/27 00:32:39;;;;;;;;;;;;;;;4.85;65.41;101090.19;5008729;28;10969;-73
2021/01/27 00:35:06;;;;;;;;;;;;;;;4.82;65.10;101089.16;5010763;28;7718;-73
2021/01/27 00:37:31;;;;;;;;;;;;;;;4.79;65.14;101089.84;5008246;28;7531;-73
2021/01/27 00:39:57;;;;;;;;;;;;;;;4.80;65.74;101070.13;5010071;28;6970;-73
2021/01/27 00:42:23;;;;;;;;;;;;;;;4.77;65.20;101065.72;5010203;28;7164;-73
2021/01/27 00:44:48;;;;;;;;;;;;;;;4.76;65.43;101069.09;5025343;28;7220;-76
2021/01/27 00:47:14;;;;;;;;;;;;;;;4.73;65.16;101068.94;5007088;28;7411;-72
2021/01/27 00:49:39;;;;;;;;;;;;;;;4.75;65.25;101064.78;5003944;28;8189;-72
2021/01/27 00:52:05;;;;;;;;;;;;;;;4.76;65.31;101058.81;5009897;28;6986;-73
2021/01/27 00:54:30;;;;;;;;;;;;;;;4.73;64.86;101048.38;5010411;28;7221;-76
2021/01/27 00:56:56;;;;;;;;;;;;;;;4.72;65.44;101043.16;5005259;28;6819;-73
2021/01/27 00:59:21;;;;;;;;;;;;;;;4.70;65.80;101037.94;5011818;28;6990;-73
2021/01/27 01:01:47;;;;;;;;;;;;;;;4.67;65.64;101035.22;5006762;28;6803;-74
2021/01/27 01:04:12;;;;;;;;;;;;;;;4.68;65.53;101026.69;5010065;28;7612;-75
2021/01/27 01:06:38;;;;;;;;;;;;;;;4.68;65.19;101023.22;5032180;28;7147;-73
2021/01/27 01:09:04;;;;;;;;;;;;;;;4.65;65.44;101021.38;5005911;28;7528;-73
2021/01/27 01:11:29;;;;;;;;;;;;;;;4.64;65.72;101024.75;5005211;28;7519;-74
2021/01/27 01:13:55;;;;;;;;;;;;;;;4.65;64.88;101017.94;5005512;28;7021;-74
2021/01/27 01:16:20;;;;;;;;;;;;;;;4.64;65.65;101011.91;5010258;28;6833;-73
2021/01/27 01:18:46;;;;;;;;;;;;;;;4.62;65.57;101022.91;5009274;28;6991;-73
2021/01/27 01:21:11;;;;;;;;;;;;;;;4.63;64.78;101016.97;5007606;28;6787;-75
2021/01/27 01:23:37;;;;;;;;;;;;;;;4.62;65.74;101008.38;5006565;28;8625;-73
2021/01/27 01:26:02;;;;;;;;;;;;;;;4.61;65.49;101008.28;5010830;28;6788;-73
2021/01/27 01:28:28;;;;;;;;;;;;;;;4.60;65.67;101007.38;5007716;28;7054;-75
2021/01/27 01:30:53;;;;;;;;;;;;;;;4.57;65.52;101010.69;5007154;28;7483;-74
2021/01/27 01:33:21;;;;;;;;;;;;;;;4.55;65.26;101012.28;5007602;28;7210;-73
2021/01/27 01:35:47;;;;;;;;;;;;;;;4.55;65.00;101017.44;4990670;28;7195;-74
2021/01/27 01:38:12;;;;;;;;;;;;;;;4.56;65.80;101018.31;5009016;28;6848;-73
2021/01/27 01:40:40;;;;;;;;;;;;;;;4.57;64.75;101025.22;5002912;28;6784;-75
2021/01/27 01:43:10;;;;;;;;;;;;;;;4.56;65.63;101018.31;5004369;28;7256;-73
2021/01/27 01:45:43;;;;;;;;;;;;;;;4.57;65.15;101026.13;5006812;28;7119;-73
2021/01/27 01:48:14;;;;;;;;;;;;;;;4.56;65.65;101019.22;5002146;28;6987;-73
2021/01/27 01:50:40;;;;;;;;;;;;;;;4.56;64.84;101013.19;5007834;28;7320;-76
2021/01/27 01:53:05;;;;;;;;;;;;;;;4.53;65.40;101013.91;5035197;28;7066;-73
2021/01/27 01:55:31;;;;;;;;;;;;;;;4.52;65.17;101017.28;5024723;28;6905;-76
2021/01/27 01:57:56;;;;;;;;;;;;;;;4.51;65.53;101010.38;5004574;28;7414;-74
2021/01/27 02:00:23;;;;;;;;;;;;;;;4.50;65.56;101002.59;5005294;28;7905;-74
2021/01/27 02:02:49;;;;;;;;;;;;;;;4.51;65.77;101015.53;5004676;28;8486;-73
2021/01/27 02:05:16;;;;;;;;;;;;;;;4.48;65.66;101020.50;5003622;28;7249;-75
2021/01/27 02:07:42;;;;;;;;;;;;;;;4.49;65.56;101016.25;5004133;28;11199;-74
2021/01/27 02:10:08;;;;;;;;;;;;;;;4.48;65.57;101015.38;5015894;28;7308;-72
2021/01/27 02:12:55;;;;;;;;;;;;;;;4.49;65.37;101024.84;5006137;28;7202;-73
2021/01/27 02:15:50;;;;;;;;;;;;;;;4.51;65.08;101022.34;5009491;28;12610;-73
2021/01/27 02:18:34;;;;;;;;;;;;;;;4.49;65.41;101019.72;5024864;28;11283;-73
2021/01/27 02:21:37;;;;;;;;;;;;;;;4.47;65.27;101015.28;5008700;28;11297;-74
2021/01/27 02:24:27;;;;;;;;;;;;;;;4.47;65.07;101005.88;5008675;28;11108;-75
2021/01/27 02:27:02;;;;;;;;;;;;;;;4.45;65.63;100996.34;5005593;28;11230;-76
2021/01/27 02:30:03;;;;;;;;;;;;;;;4.47;65.35;100997.28;5010034;28;6795;-73
2021/01/27 02:33:06;;;;;;;;;;;;;;;4.47;64.99;100993.03;5020367;28;11148;-74
2021/01/27 02:35:36;;;;;;;;;;;;;;;4.47;65.75;100998.19;5005076;28;11119;-74
2021/01/27 02:38:09;;;;;;;;;;;;;;;4.47;65.28;100992.16;5002779;28;6998;-74
2021/01/27 02:40:38;;;;;;;;;;;;;;;4.48;65.17;100991.34;5003404;28;7043;-75
2021/01/27 02:43:15;;;;;;;;;;;;;;;4.45;65.22;100978.34;5017013;28;6958;-75
2021/01/27 02:45:46;;;;;;;;;;;;;;;4.43;65.67;100965.41;5005523;28;6823;-72
2021/01/27 02:48:14;;;;;;;;;;;;;;;4.45;65.20;100968.03;5013937;28;7215;-72
2021/01/27 02:51:04;;;;;;;;;;;;;;;4.47;65.19;100964.75;5005662;28;7352;-72
2021/01/27 02:53:32;;;;;;;;;;;;;;;4.47;65.83;100969.88;5021300;28;11238;-72
2021/01/27 02:56:01;;;;;;;;;;;;;;;4.47;65.83;100972.47;5011200;28;7165;-76
2021/01/27 02:58:29;;;;;;;;;;;;;;;4.46;65.46;100965.56;5021723;28;7117;-73
2021/01/27 03:01:27;;;;;;;;;;;;;;;4.48;65.43;100963.06;5019726;28;7269;-73
2021/01/27 03:03:56;;;;;;;;;;;;;;;4.47;65.46;100972.47;5031626;28;11187;-72
2021/01/27 03:06:22;;;;;;;;;;;;;;;4.46;65.08;100962.97;5019980;28;6815;-74
2021/01/27 03:08:55;;;;;;;;;;;;;;;4.47;65.88;100959.59;5004774;28;8455;-72
2021/01/27 03:11:21;;;;;;;;;;;;;;;4.48;65.14;100947.63;5007114;28;11082;-74
2021/01/27 03:13:47;;;;;;;;;;;;;;;4.47;64.86;100946.75;5008700;28;7718;-74
2021/01/27 03:16:15;;;;;;;;;;;;;;;4.46;65.30;100947.56;5011919;28;6791;-74
2021/01/27 03:18:43;;;;;;;;;;;;;;;4.46;65.11;100952.69;5011850;28;7315;-73
2021/01/27 03:21:18;;;;;;;;;;;;;;;4.47;65.68;100933.88;5018629;28;7212;-73
2021/01/27 03:23:55;;;;;;;;;;;;;;;4.48;65.08;100920.22;5025745;28;6860;-73
2021/01/27 03:26:40;;;;;;;;;;;;;;;4.49;65.65;100909.13;5012925;28;11042;-75
2021/01/27 03:29:32;;;;;;;;;;;;;;;4.49;65.48;100906.56;5011241;28;7175;-74
2021/01/27 03:31:58;;;;;;;;;;;;;;;4.48;64.92;100902.22;5006610;28;12837;-73
2021/01/27 03:34:29;;;;;;;;;;;;;;;4.49;65.29;100905.66;5009596;28;6853;-73
2021/01/27 03:37:02;;;;;;;;;;;;;;;4.49;65.33;100903.09;5007761;28;7147;-73
2021/01/27 03:39:28;;;;;;;;;;;;;;;4.52;65.27;100895.53;5009928;28;7343;-73
2021/01/27 03:41:57;;;;;;;;;;;;;;;4.48;65.30;100885.91;5005077;28;6856;-75
2021/01/27 03:44:25;;;;;;;;;;;;;;;4.49;65.60;100888.56;5001852;28;8098;-73
2021/01/27 03:47:00;;;;;;;;;;;;;;;4.49;65.67;100878.25;4992850;28;6807;-74
2021/01/27 03:49:32;;;;;;;;;;;;;;;4.51;65.90;100876.66;5008517;28;10980;-75
2021/01/27 03:52:22;;;;;;;;;;;;;;;4.50;65.00;100882.59;5031108;28;6799;-75
2021/01/27 03:54:51;;;;;;;;;;;;;;;4.49;65.48;100887.66;5001574;28;11105;-76
2021/01/27 03:57:20;;;;;;;;;;;;;;;4.53;64.96;100880.19;5030213;28;9763;-74
2021/01/27 03:59:46;;;;;;;;;;;;;;;4.53;65.46;100869.88;5009181;28;6950;-73
2021/01/27 04:02:17;;;;;;;;;;;;;;;4.53;64.88;100857.03;5026270;28;6880;-72
2021/01/27 04:04:42;;;;;;;;;;;;;;;4.54;65.34;100845.06;5022154;28;7825;-73
2021/01/27 04:07:08;;;;;;;;;;;;;;;4.53;65.45;100833.88;5012690;28;6914;-75
2021/01/27 04:09:33;;;;;;;;;;;;;;;4.53;65.29;100821.03;5022991;28;7985;-73
2021/01/27 04:11:59;;;;;;;;;;;;;;;4.53;65.35;100813.31;5025726;28;7464;-73
2021/01/27 04:14:25;;;;;;;;;;;;;;;4.54;65.01;100815.06;5011170;28;6779;-74
2021/01/27 04:16:50;;;;;;;;;;;;;;;4.53;65.57;100815.88;5011356;28;7629;-73
2021/01/27 04:19:16;;;;;;;;;;;;;;;4.56;65.02;100812.56;5010845;28;6819;-73
2021/01/27 04:21:41;;;;;;;;;;;;;;;4.56;64.63;100810.88;5008866;28;7930;-74
2021/01/27 04:24:07;;;;;;;;;;;;;;;4.54;65.06;100802.22;5013899;28;7207;-74
2021/01/27 04:26:34;;;;;;;;;;;;;;;4.54;65.45;100809.94;5007843;28;7491;-73
2021/01/27 04:28:59;;;;;;;;;;;;;;;4.55;65.45;100805.66;5007516;28;7241;-74
2021/01/27 04:31:25;;;;;;;;;;;;;;;4.56;65.09;100803.16;5011177;28;7521;-76
2021/01/27 04:33:50;;;;;;;;;;;;;;;4.56;65.04;100805.75;5027306;28;6879;-73
2021/01/27 04:36:16;;;;;;;;;;;;;;;4.56;64.60;100818.59;5007021;28;6894;-74
2021/01/27 04:38:41;;;;;;;;;;;;;;;4.59;65.15;100818.75;5010657;28;6986;-74
2021/01/27 04:41:07;;;;;;;;;;;;;;;4.58;64.84;100827.25;5010085;28;6853;-73
2021/01/27 04:43:35;;;;;;;;;;;;;;;4.56;64.95;100817.72;5005231;28;7236;-74
2021/01/27 04:46:25;;;;;;;;;;;;;;;4.57;65.10;100810.06;5006482;28;7026;-76
2021/01/27 04:49:06;;;;;;;;;;;;;;;4.61;64.39;100810.25;5005376;28;11137;-76
2021/01/27 04:51:56;;;;;;;;;;;;;;;4.59;64.80;100805.88;5019593;28;11091;-75
2021/01/27 04:54:43;;;;;;;;;;;;;;;4.59;64.71;100794.72;5019788;28;11266;-74
2021/01/27 04:57:30;;;;;;;;;;;;;;;4.59;65.13;100771.56;5008835;28;11005;-73
2021/01/27 05:00:26;;;;;;;;;;;;;;;4.62;64.72;100776.00;5005593;28;11701;-73
2021/01/27 05:02:59;;;;;;;;;;;;;;;4.62;64.77;100766.59;5002489;28;11112;-73
2021/01/27 05:05:29;;;;;;;;;;;;;;;4.61;64.80;100764.84;5009400;28;13809;-73
2021/01/27 05:08:02;;;;;;;;;;;;;;;4.63;65.32;100764.91;5024621;28;7576;-74
2021/01/27 05:10:52;;;;;;;;;;;;;;;4.62;64.48;100751.16;5007634;28;6977;-74
2021/01/27 05:13:22;;;;;;;;;;;;;;;4.61;64.83;100735.66;5008043;28;7515;-75
2021/01/27 05:15:48;;;;;;;;;;;;;;;4.62;64.94;100728.00;5026338;28;7244;-73
2021/01/27 05:18:13;;;;;;;;;;;;;;;4.63;64.64;100713.47;4999566;28;7218;-73
2021/01/27 05:20:39;;;;;;;;;;;;;;;4.64;64.44;100713.53;5005645;28;7198;-74
2021/01/27 05:23:04;;;;;;;;;;;;;;;4.62;64.46;100712.59;5027983;28;6791;-73
2021/01/27 05:25:34;;;;;;;;;;;;;;;4.63;65.24;100695.47;5009018;28;6788;-73
2021/01/27 05:28:00;;;;;;;;;;;;;;;4.63;65.17;100701.47;5022020;28;7350;-73
2021/01/27 05:30:33;;;;;;;;;;;;;;;4.64;64.87;100707.50;5005122;28;7413;-73
2021/01/27 05:32:59;;;;;;;;;;;;;;;4.65;64.57;100705.00;5006020;28;11055;-73
2021/01/27 05:35:35;;;;;;;;;;;;;;;4.64;65.12;100697.22;5008693;28;6776;-76
2021/01/27 05:38:27;;;;;;;;;;;;;;;4.63;64.85;100693.75;5021668;28;11090;-77
2021/01/27 05:41:13;;;;;;;;;;;;;;;4.64;64.77;100684.34;5009666;28;11005;-73
2021/01/27 05:43:38;;;;;;;;;;;;;;;4.64;64.70;100684.34;5012261;28;11237;-74
2021/01/27 05:46:11;;;;;;;;;;;;;;;4.63;65.23;100687.75;5002683;28;6788;-73
2021/01/27 05:48:47;;;;;;;;;;;;;;;4.66;64.83;100682.72;5020161;28;7535;-73
2021/01/27 05:51:18;;;;;;;;;;;;;;;4.63;64.95;100677.44;5006726;28;6859;-74
2021/01/27 05:53:44;;;;;;;;;;;;;;;4.64;64.71;100669.81;4990693;28;8393;-73
2021/01/27 05:56:18;;;;;;;;;;;;;;;4.66;64.54;100670.75;5007119;28;6879;-73
2021/01/27 05:59:04;;;;;;;;;;;;;;;4.65;64.44;100668.09;4989333;28;7194;-76
2021/01/27 06:01:36;;;;;;;;;;;;;;;4.65;64.90;100673.25;5016831;28;11223;-73
2021/01/27 06:04:17;;;;;;;;;;;;;;;4.67;64.47;100671.63;5022083;28;7011;-75
2021/01/27 06:06:54;;;;;;;;;;;;;;;4.68;64.97;100683.69;5018899;28;7296;-74
2021/01/27 06:09:49;;;;;;;;;;;;;;;4.67;65.03;100677.66;5008422;28;7987;-74
2021/01/27 06:12:20;;;;;;;;;;;;;;;4.68;64.46;100666.56;4995226;28;11507;-74
2021/01/27 06:15:08;;;;;;;;;;;;;;;4.68;64.72;100669.13;5011532;28;6815;-74
2021/01/27 06:17:45;;;;;;;;;;;;;;;4.69;64.65;100667.44;5007941;28;11131;-74
2021/01/27 06:20:16;;;;;;;;;;;;;;;4.70;64.66;100666.63;5008002;28;7292;-74
2021/01/27 06:22:54;;;;;;;;;;;;;;;4.71;64.71;100663.22;5007557;28;6800;-74
2021/01/27 06:25:31;;;;;;;;;;;;;;;4.69;64.33;100657.16;5007119;28;7650;-74
2021/01/27 06:28:08;;;;;;;;;;;;;;;4.69;64.75;100639.13;5022547;28;11243;-73
2021/01/27 06:30:58;;;;;;;;;;;;;;;4.67;64.87;100631.34;5009043;28;7326;-74
2021/01/27 06:33:40;;;;;;;;;;;;;;;4.69;64.76;100628.84;5025397;28;11271;-75
2021/01/27 06:36:08;;;;;;;;;;;;;;;4.68;64.68;100617.69;5025323;28;11270;-75
2021/01/27 06:38:35;;;;;;;;;;;;;;;4.68;65.10;100622.81;5004255;28;7361;-74
2021/01/27 06:41:23;;;;;;;;;;;;;;;4.67;65.08;100625.34;5030649;28;7129;-77
2021/01/27 06:44:01;;;;;;;;;;;;;;;4.69;64.73;100629.72;5021903;28;6965;-77
2021/01/27 06:46:56;;;;;;;;;;;;;;;4.71;64.52;100645.22;5001763;28;11182;-76
2021/01/27 06:49:40;;;;;;;;;;;;;;;4.71;65.07;100642.66;5006430;28;10906;-75
2021/01/27 06:52:18;;;;;;;;;;;;;;;4.70;64.93;100633.19;5006935;28;11559;-74
2021/01/27 06:55:05;;;;;;;;;;;;;;;4.77;64.81;100614.63;5006868;28;7026;-75
2021/01/27 06:57:36;;;;;;;;;;;;;;;4.92;64.13;100612.72;5007547;28;10934;-73
2021/01/27 07:00:28;;;;;;;;;;;;;;;5.01;63.89;100615.72;5036561;28;7395;-74
2021/01/27 07:03:05;;;;;;;;;;;;;;;5.06;64.29;100603.03;5020724;28;11366;-73
2021/01/27 07:05:40;;;;;;;;;;;;;;;5.11;63.84;100604.97;5021303;28;11088;-75
2021/01/27 07:08:08;;;;;;;;;;;;;;;5.13;63.52;100600.78;5021430;28;7154;-76
2021/01/27 07:10:46;;;;;;;;;;;;;;;5.15;63.22;100596.56;5010531;28;7340;-74
2021/01/27 07:13:49;;;;;;;;;;;;;;;5.18;63.63;100599.28;5020820;28;6815;-76
2021/01/27 07:16:17;;;;;;;;;;;;;;;5.21;63.38;100595.09;5009385;28;11202;-73
2021/01/27 07:19:22;;;;;;;;;;;;;;;5.21;63.35;100587.38;5008122;28;7190;-74
2021/01/27 07:22:10;;;;;;;;;;;;;;;5.24;63.25;100592.66;4984506;28;11251;-75
2021/01/27 07:24:51;;;;;;;;;;;;;;;5.29;63.47;100593.72;5009476;28;11535;-74
2021/01/27 07:27:21;;;;;;;;;;;;;;;5.25;63.45;100582.41;5007932;28;7066;-75
2021/01/27 07:29:54;;;;;;;;;;;;;;;5.27;63.28;100579.91;5031919;28;7587;-74
2021/01/27 07:32:34;;;;;;;;;;;;;;;5.29;63.18;100579.13;5028742;28;7205;-75
2021/01/27 07:35:06;;;;;;;;;;;;;;;5.32;63.29;100586.09;5003959;28;11028;-74
2021/01/27 07:37:32;;;;;;;;;;;;;;;5.33;63.30;100593.00;5003836;28;7240;-77
2021/01/27 07:40:14;;;;;;;;;;;;;;;5.33;63.05;100585.28;5008143;28;7372;-75
2021/01/27 07:43:04;;;;;;;;;;;;;;;5.33;62.95;100593.00;5004011;28;11141;-74
2021/01/27 07:45:34;;;;;;;;;;;;;;;5.35;62.98;100579.38;5009357;28;11168;-74
2021/01/27 07:48:37;;;;;;;;;;;;;;;5.38;63.25;100583.78;5002656;28;7033;-74
2021/01/27 07:51:10;;;;;;;;;;;;;;;5.42;63.30;100596.00;5006534;28;11243;-75
2021/01/27 07:54:00;;;;;;;;;;;;;;;5.42;62.83;100596.00;4994166;28;7338;-75
2021/01/27 07:56:42;;;;;;;;;;;;;;;5.44;63.11;100600.38;5013891;28;11195;-74
2021/01/27 07:59:19;;;;;;;;;;;;;;;5.48;63.32;100593.66;5022388;28;12774;-75
2021/01/27 08:01:51;;;;;;;;;;;;;;;5.53;62.85;100596.41;5007164;28;7254;-75
2021/01/27 08:04:38;;;;;;;;;;;;;;;5.56;62.88;100592.25;5010235;28;8529;-74
2021/01/27 08:07:04;;;;;;;;;;;;;;;5.59;62.49;100600.09;5022561;28;11218;-74
2021/01/27 08:09:36;;;;;;;;;;;;;;;5.64;62.52;100593.47;5035105;28;7142;-74
2021/01/27 08:12:34;;;;;;;;;;;;;;;5.67;62.21;100583.28;5017419;28;11159;-74
2021/01/27 08:14:59;;;;;;;;;;;;;;;5.70;62.76;100587.66;4982420;28;11090;-74
2021/01/27 08:17:43;;;;;;;;;;;;;;;5.74;62.45;100580.13;5008637;28;7940;-75
2021/01/27 08:20:25;;;;;;;;;;;;;;;5.74;62.29;100574.97;5011883;28;11179;-74
2021/01/27 08:22:52;;;;;;;;;;;;;;;5.77;62.48;100585.38;5008548;28;7406;-72
2021/01/27 08:26:00;;;;;;;;;;;;;;;5.79;62.40;100581.16;5002837;28;7683;-76
2021/01/27 08:28:26;;;;;;;;;;;;;;;5.83;62.34;100583.91;5018386;28;11282;-74
2021/01/27 08:31:09;;;;;;;;;;;;;;;5.84;62.25;100580.50;5007028;28;6795;-74
2021/01/27 08:33:47;;;;;;;;;;;;;;;5.88;62.32;100582.38;5003352;28;11367;-75
2021/01/27 08:36:22;;;;;;;;;;;;;;;5.86;62.11;100587.47;5008784;28;7261;-73
2021/01/27 08:39:07;;;;;;;;;;;;;;;5.92;62.51;100597.16;4986375;28;7289;-72
2021/01/27 08:41:52;;;;;;;;;;;;;;;5.93;62.05;100597.22;5025678;28;12198;-73
2021/01/27 08:44:20;;;;;;;;;;;;;;;5.93;62.52;100598.91;5010434;28;6799;-73
2021/01/27 08:46:46;;;;;;;;;;;;;;;5.94;62.24;100593.81;5007020;28;8033;-72
2021/01/27 08:49:32;;;;;;;;;;;;;;;5.95;62.51;100595.56;5021493;28;6823;-71
2021/01/27 08:51:57;;;;;;;;;;;;;;;5.97;62.10;100588.78;5019811;28;11278;-74
2021/01/27 08:54:37;;;;;;;;;;;;;;;5.99;62.32;100578.53;5017230;28;7229;-73
2021/01/27 08:57:21;;;;;;;;;;;;;;;6.03;62.29;100562.38;5009291;28;12280;-72
2021/01/27 09:00:19;;;;;;;;;;;;;;;6.12;62.03;100559.25;5009088;28;11108;-69
2021/01/27 09:02:56;;;;;;;;;;;;;;;6.13;61.56;100574.78;5006835;28;11160;-73
2021/01/27 09:05:40;;;;;;;;;;;;;;;6.13;61.68;100576.50;5008873;28;7943;-74
2021/01/27 09:08:11;;;;;;;;;;;;;;;6.14;62.08;100562.78;4991891;28;12952;-73
2021/01/27 09:10:47;;;;;;;;;;;;;;;6.14;61.94;100560.19;5009454;28;11023;-73
2021/01/27 09:13:42;;;;;;;;;;;;;;;6.13;62.06;100559.31;5034414;28;11100;-72
2021/01/27 09:16:14;;;;;;;;;;;;;;;6.11;61.95;100560.97;5003287;28;11328;-73
2021/01/27 09:18:40;;;;;;;;;;;;;;;6.18;62.24;100562.06;5006040;28;11139;-72
2021/01/27 09:21:13;;;;;;;;;;;;;;;6.19;61.78;100549.22;5006543;28;7368;-73
2021/01/27 09:23:38;;;;;;;;;;;;;;;6.21;61.67;100570.81;5010129;28;11040;-73
2021/01/27 09:26:15;;;;;;;;;;;;;;;6.25;62.10;100574.38;5008827;28;12166;-74
2021/01/27 09:28:41;;;;;;;;;;;;;;;6.29;62.08;100586.56;5005803;28;12578;-73
2021/01/27 09:31:22;;;;;;;;;;;;;;;6.25;62.15;100595.03;5008552;28;7133;-74
2021/01/27 09:33:48;;;;;;;;;;;;;;;6.25;61.89;100575.28;5017120;28;13649;-73
2021/01/27 09:36:24;;;;;;;;;;;;;;;6.38;61.82;100564.56;5009181;28;7400;-71
2021/01/27 09:38:51;;;;;;;;;;;;;;;6.53;61.18;100564.25;5006402;28;7498;-71
2021/01/27 09:41:20;;;;;;;;;;;;;;;6.66;60.96;100556.16;5008225;28;8085;-73
2021/01/27 09:43:46;;;;;;;;;;;;;;;6.78;60.94;100550.53;5024155;28;6943;-73
2021/01/27 09:46:19;;;;;;;;;;;;;;;6.81;60.33;100540.34;5025448;28;6871;-72
2021/01/27 09:48:46;;;;;;;;;;;;;;;6.93;60.52;100552.78;5024268;28;6821;-73
2021/01/27 09:51:12;;;;;;;;;;;;;;;6.99;60.22;100556.44;5007117;28;7118;-72
2021/01/27 09:53:37;;;;;;;;;;;;;;;6.99;60.23;100552.97;5008791;28;7043;-73
2021/01/27 09:56:04;;;;;;;;;;;;;;;7.10;60.17;100548.19;5011052;28;6791;-73
2021/01/27 09:58:29;;;;;;;;;;;;;;;7.12;60.39;100543.94;5023794;28;7285;-73
2021/01/27 10:01:01;;;;;;;;;;;;;;;7.18;59.69;100554.47;5006019;28;7364;-72
2021/01/27 10:03:35;;;;;;;;;;;;;;;7.01;60.16;100546.19;5003844;28;7098;-71
2021/01/27 10:06:01;;;;;;;;;;;;;;;6.96;60.65;100552.88;5005335;28;7266;-74
2021/01/27 10:08:31;;;;;;;;;;;;;;;7.00;60.42;100547.84;5008346;28;6795;-73
2021/01/27 10:11:00;;;;;;;;;;;;;;;7.05;60.38;100550.63;5022962;28;7252;-70
2021/01/27 10:13:32;;;;;;;;;;;;;;;7.09;60.83;100544.72;5006211;28;7297;-73
2021/01/27 10:16:02;;;;;;;;;;;;;;;7.15;60.73;100544.03;5009667;28;8666;-72
2021/01/27 10:18:28;;;;;;;;;;;;;;;7.22;60.23;100546.03;5033675;28;7452;-72
2021/01/27 10:20:59;;;;;;;;;;;;;;;7.23;60.41;100546.06;5009397;28;7400;-73
2021/01/27 10:23:56;;;;;;;;;;;;;;;7.25;59.90;100548.72;5007033;28;7556;-72
2021/01/27 10:26:40;;;;;;;;;;;;;;;7.26;60.59;100553.91;5003760;28;11276;-72
2021/01/27 10:29:16;;;;;;;;;;;;;;;7.25;60.70;100553.88;5007183;28;11133;-73
2021/01/27 10:31:53;;;;;;;;;;;;;;;7.30;60.45;100549.72;5010682;28;10960;-73
2021/01/27 10:34:45;;;;;;;;;;;;;;;7.40;59.85;100551.78;5006957;28;8547;-73
2021/01/27 10:37:34;;;;;;;;;;;;;;;7.45;59.63;100550.25;5022912;28;13118;-73
2021/01/27 10:40:08;;;;;;;;;;;;;;;7.49;59.91;100541.75;5003784;28;11349;-72
2021/01/27 10:42:36;;;;;;;;;;;;;;;7.56;59.88;100543.69;5007905;28;8078;-73
2021/01/27 10:45:24;;;;;;;;;;;;;;;7.58;59.89;100542.03;5022170;28;7470;-72
2021/01/27 10:48:10;;;;;;;;;;;;;;;7.59;60.00;100538.63;5007647;28;13359;-73
2021/01/27 10:50:38;;;;;;;;;;;;;;;7.62;59.70;100528.41;5008785;28;7540;-70
2021/01/27 10:53:05;;;;;;;;;;;;;;;7.69;59.36;100532.03;5035004;28;6816;-71
2021/01/27 10:55:34;;;;;;;;;;;;;;;7.77;59.10;100534.84;5024212;28;6880;-73
2021/01/27 10:58:10;;;;;;;;;;;;;;;7.82;59.39;100535.91;5021681;28;6823;-72
2021/01/27 11:00:36;;;;;;;;;;;;;;;7.88;59.27;100530.91;5032215;28;7129;-72
2021/01/27 11:03:03;;;;;;;;;;;;;;;7.95;58.88;100535.44;5007878;28;7079;-71
2021/01/27 11:05:29;;;;;;;;;;;;;;;7.96;58.59;100539.75;5009337;28;6895;-72
2021/01/27 11:07:55;;;;;;;;;;;;;;;7.96;59.15;100533.72;5003388;28;7287;-74
2021/01/27 11:10:23;;;;;;;;;;;;;;;7.99;59.33;100528.63;5033897;28;7104;-73
2021/01/27 11:12:49;;;;;;;;;;;;;;;8.05;59.14;100537.47;5006060;28;8402;-73
2021/01/27 11:15:15;;;;;;;;;;;;;;;8.15;58.96;100539.47;5005525;28;7565;-73
2021/01/27 11:17:40;;;;;;;;;;;;;;;8.23;58.45;100534.56;5012948;28;6838;-72
2021/01/27 11:20:07;;;;;;;;;;;;;;;8.27;59.01;100532.94;5007080;28;6803;-72
2021/01/27 11:22:32;;;;;;;;;;;;;;;8.27;58.73;100530.34;5029601;28;7311;-72
2021/01/27 11:24:58;;;;;;;;;;;;;;;8.28;58.53;100520.03;5017714;28;7051;-73
2021/01/27 11:27:23;;;;;;;;;;;;;;;8.20;58.63;100522.38;5017834;28;6805;-73
2021/01/27 11:29:49;;;;;;;;;;;;;;;8.18;59.21;100524.03;5004175;28;7422;-73
2021/01/27 11:32:15;;;;;;;;;;;;;;;8.18;59.17;100515.41;5010174;28;6798;-72
2021/01/27 11:34:41;;;;;;;;;;;;;;;8.18;59.11;100512.81;5010176;28;7268;-73
2021/01/27 11:37:08;;;;;;;;;;;;;;;8.31;58.79;100507.19;5027314;28;6801;-72
2021/01/27 11:39:34;;;;;;;;;;;;;;;8.34;58.68;100504.72;5025589;28;6949;-73
2021/01/27 11:42:00;;;;;;;;;;;;;;;8.41;58.55;100503.16;5014476;28;7175;-73
2021/01/27 11:44:25;;;;;;;;;;;;;;;8.48;58.89;100494.75;5002614;28;6845;-73
2021/01/27 11:46:51;;;;;;;;;;;;;;;8.48;58.36;100495.63;5021274;28;6792;-72
2021/01/27 11:49:17;;;;;;;;;;;;;;;8.50;58.37;100503.44;5006072;28;7110;-72
2021/01/27 11:51:42;;;;;;;;;;;;;;;8.54;58.13;100497.50;5001710;28;7383;-73
2021/01/27 11:54:08;;;;;;;;;;;;;;;8.53;58.67;100496.63;5011159;28;6851;-71
2021/01/27 11:56:34;;;;;;;;;;;;;;;8.53;58.71;100493.16;5008247;28;6802;-71
2021/01/27 11:58:59;;;;;;;;;;;;;;;8.51;58.65;100484.47;5010878;28;8517;-68
2021/01/27 12:01:28;;;;;;;;;;;;;;;8.53;58.75;100480.22;5022354;28;6957;-69
2021/01/27 12:03:54;;;;;;;;;;;;;;;8.58;58.70;100481.22;4993505;28;9237;-70
2021/01/27 12:06:19;;;;;;;;;;;;;;;8.62;58.81;100482.19;5010449;28;7403;-70
2021/01/27 12:08:45;;;;;;;;;;;;;;;8.57;58.95;100478.59;5010301;28;11685;-72
2021/01/27 12:11:10;;;;;;;;;;;;;;;8.57;58.96;100476.88;5007807;28;7458;-71
2021/01/27 12:13:36;;;;;;;;;;;;;;;8.59;58.89;100482.97;5010597;28;7510;-69
2021/01/27 12:16:01;;;;;;;;;;;;;;;8.64;59.05;100483.97;5008693;28;6801;-72
2021/01/27 12:18:27;;;;;;;;;;;;;;;8.69;58.24;100486.69;5003367;28;7345;-70
2021/01/27 12:20:52;;;;;;;;;;;;;;;8.64;58.93;100483.97;5006665;28;6843;-72
2021/01/27 12:23:18;;;;;;;;;;;;;;;8.60;58.87;100486.41;5009271;28;8280;-69
2021/01/27 12:25:44;;;;;;;;;;;;;;;8.68;58.86;100479.75;5006261;28;6843;-73
2021/01/27 12:28:11;;;;;;;;;;;;;;;8.65;59.10;100474.50;5008748;28;7319;-70
2021/01/27 12:30:37;;;;;;;;;;;;;;;8.66;58.76;100478.84;5027032;28;6799;-71
2021/01/27 12:33:02;;;;;;;;;;;;;;;8.71;58.54;100474.66;5023791;28;6795;-70
2021/01/27 12:35:28;;;;;;;;;;;;;;;8.75;58.62;100482.53;5004462;28;6795;-73
2021/01/27 12:37:53;;;;;;;;;;;;;;;8.76;58.67;100476.53;5012235;28;6967;-71
2021/01/27 12:40:20;;;;;;;;;;;;;;;8.78;58.62;100481.75;5009789;28;6814;-71
2021/01/27 12:42:46;;;;;;;;;;;;;;;8.76;58.87;100471.34;5008866;28;11127;-72
2021/01/27 12:45:13;;;;;;;;;;;;;;;8.76;59.03;100471.34;5039721;28;7229;-72
2021/01/27 12:47:38;;;;;;;;;;;;;;;8.77;59.10;100467.03;5023937;28;7117;-72
2021/01/27 12:50:05;;;;;;;;;;;;;;;8.77;58.85;100467.03;5008673;28;7123;-71
2021/01/27 12:52:30;;;;;;;;;;;;;;;8.74;58.99;100469.56;5009553;28;6815;-71
2021/01/27 12:54:56;;;;;;;;;;;;;;;8.70;59.04;100468.59;5022876;28;6998;-72
2021/01/27 12:57:21;;;;;;;;;;;;;;;8.73;58.87;100460.91;5007478;28;6855;-74
2021/01/27 12:59:47;;;;;;;;;;;;;;;8.76;59.24;100453.22;5008325;28;7303;-70
2021/01/27 13:02:12;;;;;;;;;;;;;;;8.75;58.98;100441.09;5009717;28;7101;-73
2021/01/27 13:04:39;;;;;;;;;;;;;;;8.73;59.30;100450.56;5006399;28;7205;-73
2021/01/27 13:07:05;;;;;;;;;;;;;;;8.72;59.57;100453.09;5012647;28;7248;-72
2021/01/27 13:09:30;;;;;;;;;;;;;;;8.65;59.60;100441.72;5016088;28;7252;-74
2021/01/27 13:11:56;;;;;;;;;;;;;;;8.65;59.52;100444.31;5005923;28;6947;-74
2021/01/27 13:14:22;;;;;;;;;;;;;;;8.68;59.36;100444.41;5008841;28;6956;-73
2021/01/27 13:16:48;;;;;;;;;;;;;;;8.69;59.87;100453.03;5005877;28;7177;-72
2021/01/27 13:19:14;;;;;;;;;;;;;;;8.68;59.33;100449.56;5003579;28;7718;-72
2021/01/27 13:21:39;;;;;;;;;;;;;;;8.64;59.81;100449.47;5006000;28;7213;-72